Time,TemperatureF,DewpointF,PressureIn,WindDirection,WindDirectionDegrees,WindSpeedMPH,WindSpeedGustMPH,Humidity,HourlyPrecipIn,Conditions,Clouds,dailyrainin,SoftwareType,DateUTC
2013-06-29 00:14:00,64.9,64.6,29.42,West,270,0.0,-999.0,99,-99.99,,,0.00,Acu-Link.com,2013-06-29 05:14:00,
2013-06-29 00:29:00,64.2,6.5,29.41,West,270,0.0,-999.0,10,-99.99,,,0.00,Acu-Link.com,2013-06-29 05:29:00,
2013-06-29 00:44:00,64.4,17.2,29.41,West,270,0.0,-999.0,16,-99.99,,,0.00,Acu-Link.com,2013-06-29 05:44:00,
2013-06-29 00:59:00,63.9,-38.5,29.41,West,270,0.0,-999.0,0,-99.99,,,0.00,Acu-Link.com,2013-06-29 05:59:00,
2013-06-29 01:14:00,63.7,-4.7,29.41,West,270,0.0,-999.0,6,-99.99,,,0.00,Acu-Link.com,2013-06-29 06:14:00,
2013-06-29 01:29:00,63.3,11.6,29.40,West,270,0.0,-999.0,13,-99.99,,,0.00,Acu-Link.com,2013-06-29 06:29:00,
2013-06-29 01:44:00,62.8,-9.1,29.40,West,270,0.0,-999.0,5,-99.99,,,0.00,Acu-Link.com,2013-06-29 06:44:00,
2013-06-29 01:59:00,62.6,15.8,29.40,West,270,0.0,-999.0,16,-99.99,,,0.00,Acu-Link.com,2013-06-29 06:59:00,
2013-06-29 02:14:00,62.4,27.1,29.38,West,270,0.0,-999.0,26,-99.99,,,0.00,Acu-Link.com,2013-06-29 07:14:00,
2013-06-29 02:29:00,62.1,25.9,29.38,West,270,0.0,-999.0,25,-99.99,,,0.00,Acu-Link.com,2013-06-29 07:29:00,
2013-06-29 02:45:00,62.2,24.0,29.38,West,270,0.0,-999.0,23,-99.99,,,0.00,Acu-Link.com,2013-06-29 07:45:00,
2013-06-29 03:00:00,62.1,27.7,29.38,West,270,0.0,-999.0,27,-99.99,,,0.00,Acu-Link.com,2013-06-29 08:00:00,
2013-06-29 03:15:00,61.9,28.4,29.38,West,270,0.0,-999.0,28,-99.99,,,0.00,Acu-Link.com,2013-06-29 08:15:00,
2013-06-29 03:30:00,61.7,28.3,29.38,West,270,0.0,-999.0,28,-99.99,,,0.00,Acu-Link.com,2013-06-29 08:30:00,
2013-06-29 03:45:00,61.5,26.3,29.38,West,270,0.0,-999.0,26,-99.99,,,0.00,Acu-Link.com,2013-06-29 08:45:00,
2013-06-29 04:00:00,61.3,25.2,29.38,West,270,0.0,-999.0,25,-99.99,,,0.00,Acu-Link.com,2013-06-29 09:00:00,
2013-06-29 04:16:00,61.2,24.1,29.38,West,270,0.0,-999.0,24,-99.99,,,0.00,Acu-Link.com,2013-06-29 09:16:00,
2013-06-29 04:31:00,61.3,27.0,29.39,West,270,0.0,-999.0,27,-99.99,,,0.00,Acu-Link.com,2013-06-29 09:31:00,
2013-06-29 04:46:00,61.3,23.2,29.39,West,270,0.0,-999.0,23,-99.99,,,0.00,Acu-Link.com,2013-06-29 09:46:00,
2013-06-29 05:01:00,61.5,32.1,29.39,West,270,0.0,-999.0,33,-99.99,,,0.00,Acu-Link.com,2013-06-29 10:01:00,
2013-06-29 05:16:00,61.3,32.7,29.39,West,270,0.0,-999.0,34,-99.99,,,0.00,Acu-Link.com,2013-06-29 10:16:00,
2013-06-29 05:31:00,61.0,33.2,29.39,West,270,0.0,-999.0,35,-99.99,,,0.00,Acu-Link.com,2013-06-29 10:31:00,
2013-06-29 05:46:00,61.5,35.0,29.40,West,270,0.0,-999.0,37,-99.99,,,0.00,Acu-Link.com,2013-06-29 10:46:00,
2013-06-29 06:01:00,62.2,37.6,29.40,West,270,0.0,-999.0,40,-99.99,,,0.00,Acu-Link.com,2013-06-29 11:01:00,
2013-06-29 06:16:00,65.3,57.9,29.39,West,270,0.0,-999.0,77,-99.99,,,0.00,Acu-Link.com,2013-06-29 11:16:00,
2013-06-29 06:32:00,68.0,62.3,29.40,West,270,0.0,-999.0,82,-99.99,,,0.00,Acu-Link.com,2013-06-29 11:32:00,
2013-06-29 06:47:00,71.6,71.0,29.40,West,270,0.0,-999.0,98,-99.99,,,0.00,Acu-Link.com,2013-06-29 11:47:00,
2013-06-29 07:02:00,75.2,74.9,29.40,West,270,0.0,-999.0,99,-99.99,,,0.00,Acu-Link.com,2013-06-29 12:02:00,
2013-06-29 07:17:00,75.2,74.9,29.40,West,270,0.0,-999.0,99,-99.99,,,0.00,Acu-Link.com,2013-06-29 12:17:00,
2013-06-29 07:32:00,76.3,76.0,29.40,West,270,2.2,-999.0,99,-99.99,,,0.00,Acu-Link.com,2013-06-29 12:32:00,
2013-06-29 07:47:00,77.4,77.1,29.40,SE,135,0.0,-999.0,99,-99.99,,,0.00,Acu-Link.com,2013-06-29 12:47:00,
2013-06-29 08:02:00,78.6,77.7,29.41,West,270,4.7,-999.0,97,-99.99,,,0.00,Acu-Link.com,2013-06-29 13:02:00,
2013-06-29 08:17:00,78.3,77.7,29.40,West,270,2.2,-999.0,98,-99.99,,,0.00,Acu-Link.com,2013-06-29 13:17:00,
2013-06-29 08:32:00,79.5,77.9,29.41,West,270,3.7,-999.0,95,-99.99,,,0.00,Acu-Link.com,2013-06-29 13:32:00,
2013-06-29 08:48:00,78.8,76.3,29.39,WSW,247,6.8,-999.0,92,-99.99,,,0.00,Acu-Link.com,2013-06-29 13:48:00,
2013-06-29 09:03:00,79.7,76.8,29.39,NNW,337,5.8,-999.0,91,-99.99,,,0.00,Acu-Link.com,2013-06-29 14:03:00,
2013-06-29 09:18:00,80.4,77.9,29.39,West,270,3.2,-999.0,92,-99.99,,,0.00,Acu-Link.com,2013-06-29 14:18:00,
2013-06-29 09:33:00,81.3,78.1,29.39,SW,225,3.2,-999.0,90,-99.99,,,0.00,Acu-Link.com,2013-06-29 14:33:00,
2013-06-29 09:48:00,81.9,77.6,29.39,West,270,2.7,-999.0,87,-99.99,,,0.00,Acu-Link.com,2013-06-29 14:48:00,
2013-06-29 10:03:00,82.9,77.9,29.40,North,0,2.7,-999.0,85,-99.99,,,0.00,Acu-Link.com,2013-06-29 15:03:00,
2013-06-29 10:18:00,83.3,77.2,29.39,West,270,5.3,-999.0,82,-99.99,,,0.00,Acu-Link.com,2013-06-29 15:18:00,
2013-06-29 10:34:00,83.7,76.1,29.39,West,270,3.7,-999.0,78,-99.99,,,0.00,Acu-Link.com,2013-06-29 15:34:00,
2013-06-29 10:49:00,84.6,77.7,29.39,WNW,292,7.3,-999.0,80,-99.99,,,0.00,Acu-Link.com,2013-06-29 15:49:00,
2013-06-29 11:07:00,84.6,76.6,29.39,West,270,4.2,-999.0,77,-99.99,,,0.00,Acu-Link.com,2013-06-29 16:07:00,
2013-06-29 11:22:00,84.6,75.8,29.39,West,270,4.7,-999.0,75,-99.99,,,0.00,Acu-Link.com,2013-06-29 16:22:00,
2013-06-29 11:37:00,85.8,76.1,29.38,West,270,5.3,-999.0,73,-99.99,,,0.00,Acu-Link.com,2013-06-29 16:37:00,
2013-06-29 16:01:00,86.9,76.3,29.35,SW,225,3.2,-999.0,71,-99.99,,,0.00,Acu-Link.com,2013-06-29 21:01:00,
2013-06-29 16:16:00,87.3,76.3,29.35,West,270,4.7,-999.0,70,-99.99,,,0.00,Acu-Link.com,2013-06-29 21:16:00,
2013-06-29 16:31:00,87.4,74.2,29.34,NW,315,6.8,-999.0,65,-99.99,,,0.00,Acu-Link.com,2013-06-29 21:31:00,
2013-06-29 16:46:00,86.7,74.8,29.33,NNW,337,0.0,-999.0,68,-99.99,,,0.00,Acu-Link.com,2013-06-29 21:46:00,
2013-06-29 17:01:00,86.9,75.0,29.33,WNW,292,6.8,-999.0,68,-99.99,,,0.00,Acu-Link.com,2013-06-29 22:01:00,
2013-06-29 17:16:00,86.7,74.8,29.33,WNW,292,5.3,-999.0,68,-99.99,,,0.00,Acu-Link.com,2013-06-29 22:16:00,
2013-06-29 17:32:00,88.2,75.8,29.33,WSW,247,1.1,-999.0,67,-99.99,,,0.00,Acu-Link.com,2013-06-29 22:32:00,
2013-06-29 17:47:00,87.6,75.7,29.34,WSW,247,0.0,-999.0,68,-99.99,,,0.00,Acu-Link.com,2013-06-29 22:47:00,
2013-06-29 18:02:00,85.1,75.9,29.34,SSW,202,0.0,-999.0,74,-99.99,,,0.00,Acu-Link.com,2013-06-29 23:02:00,
2013-06-29 18:17:00,87.4,76.8,29.33,NNW,337,1.1,-999.0,71,-99.99,,,0.00,Acu-Link.com,2013-06-29 23:17:00,
2013-06-29 18:32:00,88.9,76.5,29.34,West,270,1.1,-999.0,67,-99.99,,,0.00,Acu-Link.com,2013-06-29 23:32:00,
2013-06-29 18:47:00,87.8,76.3,29.35,WSW,247,1.7,-999.0,69,-99.99,,,0.00,Acu-Link.com,2013-06-29 23:47:00,
2013-06-29 19:02:00,86.2,76.1,29.34,SW,225,2.2,-999.0,72,-99.99,,,0.00,Acu-Link.com,2013-06-30 00:02:00,
2013-06-29 19:17:00,82.4,75.2,29.35,SW,225,0.0,-999.0,79,-99.99,,,0.00,Acu-Link.com,2013-06-30 00:17:00,
2013-06-29 19:32:00,79.2,74.3,29.35,West,270,0.0,-999.0,85,-99.99,,,0.00,Acu-Link.com,2013-06-30 00:32:00,
2013-06-29 19:47:00,77.4,74.9,29.37,West,270,9.4,-999.0,92,-99.99,,,0.00,Acu-Link.com,2013-06-30 00:47:00,
2013-06-29 20:03:00,68.7,68.4,29.35,SW,225,2.2,-999.0,99,-99.99,,,0.00,Acu-Link.com,2013-06-30 01:03:00,
2013-06-29 20:18:00,67.8,67.5,29.38,North,0,4.2,-999.0,99,-99.99,,,0.00,Acu-Link.com,2013-06-30 01:18:00,
2013-06-29 20:33:00,66.7,66.4,29.39,NNE,22,0.0,-999.0,99,-99.99,,,0.00,Acu-Link.com,2013-06-30 01:33:00,
2013-06-29 20:49:00,66.0,65.7,29.40,West,270,0.0,-999.0,99,-99.99,,,0.00,Acu-Link.com,2013-06-30 01:49:00,
2013-06-29 21:05:00,65.3,65.0,29.40,West,270,0.0,-999.0,99,-99.99,,,0.00,Acu-Link.com,2013-06-30 02:05:00,
2013-06-29 21:20:00,64.9,50.2,29.39,West,270,0.0,-999.0,59,-99.99,,,0.00,Acu-Link.com,2013-06-30 02:20:00,
2013-06-29 21:35:00,64.9,-37.9,29.40,West,270,2.7,-999.0,1,-99.99,,,0.00,Acu-Link.com,2013-06-30 02:35:00,
2013-06-29 21:50:00,64.9,14.6,29.41,West,270,0.0,-999.0,14,-99.99,,,0.00,Acu-Link.com,2013-06-30 02:50:00,
2013-06-29 22:05:00,64.8,14.5,29.41,West,270,0.0,-999.0,14,-99.99,,,0.00,Acu-Link.com,2013-06-30 03:05:00,
2013-06-29 22:20:00,64.4,26.8,29.43,West,270,0.0,-999.0,24,-99.99,,,0.00,Acu-Link.com,2013-06-30 03:20:00,
2013-06-29 22:36:00,64.4,27.8,29.42,West,270,0.0,-999.0,25,-99.99,,,0.00,Acu-Link.com,2013-06-30 03:36:00,
2013-06-29 22:51:00,64.4,21.3,29.42,West,270,0.0,-999.0,19,-99.99,,,0.00,Acu-Link.com,2013-06-30 03:51:00,
2013-06-29 23:06:00,64.4,12.5,29.43,West,270,0.0,-999.0,13,-99.99,,,0.00,Acu-Link.com,2013-06-30 04:06:00,
2013-06-29 23:21:00,64.2,23.5,29.43,West,270,0.0,-999.0,21,-99.99,,,0.00,Acu-Link.com,2013-06-30 04:21:00,
2013-06-29 23:36:00,64.2,17.1,29.41,West,270,0.0,-999.0,16,-99.99,,,0.00,Acu-Link.com,2013-06-30 04:36:00,
2013-06-29 23:51:00,63.7,20.7,29.42,West,270,0.0,-999.0,19,-99.99,,,0.00,Acu-Link.com,2013-06-30 04:51:00,